createdAt,value
2023-02-22T00:00:44.015Z,100454.78
2023-02-22T00:01:51.852Z,100449.13
2023-02-22T00:03:00.154Z,100445.00
2023-02-22T00:04:05.003Z,100451.03
2023-02-22T00:05:07.354Z,100447.25
2023-02-22T00:06:17.351Z,100457.66
2023-02-22T00:07:21.569Z,100447.50
2023-02-22T00:08:32.052Z,100460.91
2023-02-22T00:09:34.623Z,100458.75
2023-02-22T00:10:38.614Z,100456.78
2023-02-22T00:11:46.720Z,100459.88
2023-02-22T00:12:49.449Z,100466.34
2023-02-22T00:13:51.740Z,100463.44
2023-02-22T00:14:54.170Z,100470.59
2023-02-22T00:15:57.921Z,100469.53
2023-02-22T00:17:00.350Z,100473.84
2023-02-22T00:18:04.731Z,100472.63
2023-02-22T00:19:07.810Z,100470.44
2023-02-22T00:20:14.606Z,100474.81
2023-02-22T00:21:18.031Z,100477.28
2023-02-22T00:22:20.751Z,100476.38
2023-02-22T00:23:23.506Z,100474.81
2023-02-22T00:24:26.030Z,100479.63
2023-02-22T00:25:28.395Z,100475.09
2023-02-22T00:26:34.069Z,100475.59
2023-02-22T00:27:37.264Z,100477.31
2023-02-22T00:28:42.602Z,100482.09
2023-02-22T00:29:46.522Z,100488.59
2023-02-22T00:30:48.878Z,100486.56
2023-02-22T00:31:51.450Z,100482.38
2023-02-22T00:32:56.279Z,100484.22
2023-02-22T00:33:58.637Z,100485.63
2023-02-22T00:35:01.019Z,100489.03
2023-02-22T00:36:03.885Z,100482.69
2023-02-22T00:37:06.388Z,100489.53
2023-02-22T00:38:09.222Z,100496.31
2023-02-22T00:39:12.633Z,100488.91
2023-02-22T00:40:18.434Z,100493.69
2023-02-22T00:41:20.878Z,100493.69
2023-02-22T00:42:25.847Z,100499.53
2023-02-22T00:43:28.480Z,100494.44
2023-02-22T00:44:30.833Z,100485.31
2023-02-22T00:45:35.120Z,100496.78
2023-02-22T00:46:37.838Z,100488.25
2023-02-22T00:47:40.251Z,100492.28
2023-02-22T00:48:43.666Z,100495.22
2023-02-22T00:49:46.603Z,100493.34
2023-02-22T00:50:50.648Z,100493.69
2023-02-22T00:51:53.023Z,100494.28
2023-02-22T00:52:56.870Z,100496.47
2023-02-22T00:53:59.710Z,100496.13
2023-02-22T00:55:02.738Z,100492.44
2023-02-22T00:56:05.693Z,100495.41
2023-02-22T00:57:26.685Z,100492.09
2023-02-22T00:58:29.251Z,100491.53
2023-02-22T00:59:33.738Z,100499.53
2023-02-22T01:00:41.882Z,100498.03
2023-02-22T01:01:44.566Z,100496.63
2023-02-22T01:02:50.914Z,100497.06
2023-02-22T01:03:54.040Z,100500.78
2023-02-22T01:04:56.715Z,100493.03
2023-02-22T01:05:59.211Z,100491.44
2023-02-22T01:07:01.549Z,100501.66
2023-02-22T01:08:06.676Z,100498.44
2023-02-22T01:09:09.860Z,100497.66
2023-02-22T01:10:13.483Z,100492.56
2023-02-22T01:11:17.874Z,100503.69
2023-02-22T01:12:21.103Z,100498.72
2023-02-22T01:13:23.978Z,100497.66
2023-02-22T01:14:28.888Z,100504.75
2023-02-22T01:15:31.321Z,100505.66
2023-02-22T01:16:35.625Z,100503.69
2023-02-22T01:17:39.194Z,100507.19
2023-02-22T01:18:42.399Z,100507.34
2023-02-22T01:19:45.008Z,100510.75
2023-02-22T01:20:48.208Z,100514.44
2023-02-22T01:21:51.464Z,100510.75
2023-02-22T01:22:56.430Z,100510.41
2023-02-22T01:23:58.789Z,100514.75
2023-02-22T01:25:01.663Z,100512.59
2023-02-22T01:26:06.117Z,100517.38
2023-02-22T01:27:08.650Z,100519.53
2023-02-22T01:28:11.489Z,100515.34
2023-02-22T01:29:17.349Z,100521.97
2023-02-22T01:30:29.854Z,100515.94
2023-02-22T01:31:32.749Z,100520.44
2023-02-22T01:32:36.942Z,100518.72
2023-02-22T01:33:41.057Z,100516.88
2023-02-22T01:34:43.228Z,100510.38
2023-02-22T01:35:47.094Z,100513.97
2023-02-22T01:36:49.847Z,100523.34
2023-02-22T01:37:52.441Z,100515.63
2023-02-22T01:38:55.820Z,100518.25
2023-02-22T01:39:58.756Z,100518.25
2023-02-22T01:41:01.109Z,100523.28
2023-02-22T01:42:04.900Z,100515.56
2023-02-22T01:43:21.660Z,100516.69
2023-02-22T01:44:31.563Z,100524.88
2023-02-22T01:45:34.308Z,100522.81
2023-02-22T01:46:36.843Z,100520.06
2023-02-22T01:47:39.294Z,100520.19
2023-02-22T01:48:46.203Z,100529.78
2023-02-22T01:49:50.722Z,100520.63
2023-02-22T01:51:11.315Z,100521.44
2023-02-22T01:52:18.878Z,100520.19
2023-02-22T01:53:30.519Z,100520.63
2023-02-22T01:54:37.930Z,100519.28
2023-02-22T01:55:40.715Z,100518.00
2023-02-22T01:56:50.661Z,100517.56
2023-02-22T01:57:55.192Z,100523.44
2023-02-22T01:59:02.716Z,100518.81
2023-02-22T02:00:10.772Z,100516.94
2023-02-22T02:01:19.300Z,100522.19
2023-02-22T02:02:22.511Z,100526.06
2023-02-22T02:03:34.292Z,100517.22
2023-02-22T02:04:37.321Z,100521.72
2023-02-22T02:05:39.935Z,100522.00
2023-02-22T02:06:45.648Z,100528.69
2023-02-22T02:07:49.492Z,100523.44
2023-02-22T02:09:16.385Z,100523.75
2023-02-22T02:10:19.777Z,100520.81
2023-02-22T02:11:25.743Z,100521.13
2023-02-22T02:12:32.784Z,100522.19
2023-02-22T02:13:36.242Z,100524.63
2023-02-22T02:14:41.717Z,100516.03
2023-02-22T02:15:45.172Z,100517.28
2023-02-22T02:16:50.563Z,100522.69
2023-02-22T02:17:54.967Z,100519.56
2023-02-22T02:18:58.030Z,100515.38
2023-02-22T02:20:22.806Z,100526.69
2023-02-22T02:21:44.011Z,100524.53
2023-02-22T02:23:17.352Z,100524.53
2023-02-22T02:24:43.974Z,100525.59
2023-02-22T02:26:04.596Z,100521.44
2023-02-22T02:27:14.809Z,100516.94
2023-02-22T02:28:37.708Z,100520.94
2023-02-22T02:29:49.215Z,100520.94
2023-02-22T02:31:23.627Z,100528.22
2023-02-22T02:32:44.779Z,100529.56
2023-02-22T02:34:33.234Z,100532.28
2023-02-22T02:35:49.285Z,100523.34
2023-02-22T02:37:11.344Z,100524.59
2023-02-22T02:38:30.941Z,100523.34
2023-02-22T02:39:53.434Z,100514.69
2023-02-22T02:41:03.445Z,100522.44
2023-02-22T02:42:12.821Z,100523.03
2023-02-22T02:43:42.153Z,100524.72
2023-02-22T02:44:51.780Z,100523.34
2023-02-22T02:46:12.325Z,100519.34
2023-02-22T02:47:22.032Z,100521.59
2023-02-22T02:48:27.469Z,100520.53
2023-02-22T02:49:38.086Z,100521.59
2023-02-22T02:50:46.869Z,100518.22
2023-02-22T02:51:54.862Z,100522.69
2023-02-22T02:53:01.420Z,100525.78
2023-02-22T02:54:05.983Z,100526.69
2023-02-22T02:55:11.535Z,100524.94
2023-02-22T02:56:17.264Z,100533.22
2023-02-22T02:57:19.769Z,100527.38
2023-02-22T02:58:23.651Z,100531.66
2023-02-22T02:59:29.696Z,100536.47
2023-02-22T03:00:40.760Z,100530.72
2023-02-22T03:02:09.464Z,100530.72
2023-02-22T03:03:23.784Z,100541.94
2023-02-22T03:04:44.824Z,100534.25
2023-02-22T03:06:02.082Z,100530.22
2023-02-22T03:07:26.128Z,100539.53
2023-02-22T03:08:34.870Z,100539.06
2023-02-22T03:09:40.700Z,100540.59
2023-02-22T03:10:54.067Z,100533.75
2023-02-22T03:12:02.381Z,100540.38
2023-02-22T03:13:08.302Z,100538.03
2023-02-22T03:14:25.486Z,100544.34
2023-02-22T03:15:44.455Z,100546.13
2023-02-22T03:16:57.622Z,100541.91
2023-02-22T03:18:08.447Z,100542.53
2023-02-22T03:19:36.562Z,100545.06
2023-02-22T03:20:45.553Z,100542.94
2023-02-22T03:21:57.270Z,100543.25
2023-02-22T03:23:07.375Z,100540.41
2023-02-22T03:24:17.577Z,100536.06
2023-02-22T03:25:28.126Z,100545.28
2023-02-22T03:26:47.503Z,100546.44
2023-02-22T03:27:54.544Z,100545.66
2023-02-22T03:28:59.931Z,100541.56
2023-02-22T03:30:07.694Z,100540.63
2023-02-22T03:31:17.428Z,100544.78
2023-02-22T03:32:25.958Z,100538.38
2023-02-22T03:33:41.039Z,100546.44
2023-02-22T03:34:52.835Z,100544.47
2023-02-22T03:36:00.691Z,100551.75
2023-02-22T03:37:08.882Z,100545.97
2023-02-22T03:38:19.709Z,100546.63
2023-02-22T03:39:31.311Z,100542.75
2023-02-22T03:40:39.600Z,100540.78
2023-02-22T03:41:48.666Z,100545.75
2023-02-22T03:42:55.160Z,100546.31
2023-02-22T03:44:14.747Z,100551.63
2023-02-22T03:45:20.261Z,100550.78
2023-02-22T03:46:24.409Z,100551.63
2023-02-22T03:47:40.997Z,100550.56
2023-02-22T03:49:07.260Z,100551.53
2023-02-22T03:50:20.043Z,100557.81
2023-02-22T03:51:24.849Z,100549.47
2023-02-22T03:52:32.892Z,100549.72
2023-02-22T03:53:37.353Z,100555.53
2023-02-22T03:54:41.631Z,100554.25
2023-02-22T03:55:44.254Z,100555.72
2023-02-22T03:56:55.191Z,100554.75
2023-02-22T03:58:05.000Z,100563.16
2023-02-22T03:59:11.512Z,100560.38
2023-02-22T04:00:18.354Z,100559.88
2023-02-22T04:01:23.923Z,100556.53
2023-02-22T04:02:27.793Z,100567.50
2023-02-22T04:03:30.380Z,100563.63
2023-02-22T04:04:33.014Z,100558.13
2023-02-22T04:05:35.496Z,100555.34
2023-02-22T04:06:37.970Z,100558.25
2023-02-22T04:07:41.745Z,100561.44
2023-02-22T04:08:46.852Z,100556.00
2023-02-22T04:09:49.329Z,100561.53
2023-02-22T04:10:52.944Z,100565.97
2023-02-22T04:11:58.784Z,100558.00
2023-02-22T04:13:04.775Z,100557.00
2023-02-22T04:14:09.755Z,100565.97
2023-02-22T04:15:16.517Z,100563.13
2023-02-22T04:16:20.041Z,100561.56
2023-02-22T04:17:22.716Z,100565.47
2023-02-22T04:18:26.955Z,100560.78
2023-02-22T04:19:31.856Z,100559.84
2023-02-22T04:20:35.083Z,100570.06
2023-02-22T04:21:45.387Z,100564.75
2023-02-22T04:22:55.360Z,100566.59
2023-02-22T04:23:58.325Z,100567.88
2023-02-22T04:25:00.745Z,100564.47
2023-02-22T04:26:03.757Z,100573.94
2023-02-22T04:27:06.572Z,100563.06
2023-02-22T04:28:13.557Z,100566.75
2023-02-22T04:29:30.925Z,100568.63
2023-02-22T04:30:33.299Z,100566.84
2023-02-22T04:31:36.873Z,100562.97
2023-02-22T04:32:40.021Z,100566.00
2023-02-22T04:33:42.919Z,100564.63
2023-02-22T04:34:47.449Z,100560.94
2023-02-22T04:35:49.913Z,100559.31
2023-02-22T04:36:52.630Z,100564.34
2023-02-22T04:37:55.379Z,100561.19
2023-02-22T04:38:59.557Z,100560.41
2023-02-22T04:40:08.838Z,100567.16
2023-02-22T04:41:11.839Z,100562.91
2023-02-22T04:42:14.343Z,100565.53
2023-02-22T04:43:16.826Z,100555.88
2023-02-22T04:44:19.378Z,100563.50
2023-02-22T04:45:21.904Z,100559.31
2023-02-22T04:46:24.467Z,100561.94
2023-02-22T04:47:28.067Z,100563.28
2023-02-22T04:48:32.172Z,100562.78
2023-02-22T04:49:34.601Z,100559.94
2023-02-22T04:50:37.493Z,100558.31
2023-02-22T04:51:41.393Z,100562.72
2023-02-22T04:52:47.602Z,100570.63
2023-02-22T04:53:50.163Z,100569.34
2023-02-22T04:54:53.190Z,100565.09
2023-02-22T04:55:55.580Z,100571.66
2023-02-22T04:56:58.423Z,100570.38
2023-02-22T04:58:01.139Z,100566.28
2023-02-22T04:59:05.898Z,100567.63
2023-02-22T05:00:10.589Z,100570.50
2023-02-22T05:01:15.853Z,100569.25
2023-02-22T05:02:19.841Z,100565.88
2023-02-22T05:03:22.371Z,100569.81
2023-02-22T05:04:24.762Z,100569.59
2023-02-22T05:05:27.121Z,100574.88
2023-02-22T05:06:30.001Z,100570.72
2023-02-22T05:07:32.534Z,100568.16
2023-02-22T05:08:35.641Z,100572.94
2023-02-22T05:09:38.588Z,100572.88
2023-02-22T05:10:41.002Z,100569.56
2023-02-22T05:11:43.460Z,100574.00
2023-02-22T05:12:46.035Z,100575.53
2023-02-22T05:13:49.082Z,100582.88
2023-02-22T05:14:51.515Z,100577.66
2023-02-22T05:15:54.619Z,100582.66
2023-02-22T05:16:58.264Z,100581.41
2023-02-22T05:18:00.844Z,100579.19
2023-02-22T05:19:03.476Z,100585.53
2023-02-22T05:20:08.715Z,100584.72
2023-02-22T05:21:14.235Z,100593.31
2023-02-22T05:22:16.682Z,100591.97
2023-02-22T05:23:19.063Z,100585.47
2023-02-22T05:24:21.450Z,100592.50
2023-02-22T05:25:25.097Z,100593.03
2023-02-22T05:26:27.734Z,100596.72
2023-02-22T05:27:30.252Z,100594.16
2023-02-22T05:28:33.715Z,100595.69
2023-02-22T05:29:43.367Z,100599.63
2023-02-22T05:30:45.820Z,100598.34
2023-02-22T05:31:48.317Z,100600.72
2023-02-22T05:32:52.051Z,100599.63
2023-02-22T05:33:54.563Z,100602.09
2023-02-22T05:34:57.057Z,100595.31
2023-02-22T05:35:59.519Z,100605.75
2023-02-22T05:37:03.578Z,100605.50
2023-02-22T05:38:06.830Z,100602.00
2023-02-22T05:39:11.254Z,100594.72
2023-02-22T05:40:14.928Z,100602.56
2023-02-22T05:41:18.702Z,100602.88
2023-02-22T05:42:21.608Z,100603.84
2023-02-22T05:43:24.000Z,100608.78
2023-02-22T05:44:26.293Z,100603.91
2023-02-22T05:45:29.239Z,100612.09
2023-02-22T05:46:31.788Z,100609.91
2023-02-22T05:47:34.195Z,100617.41
2023-02-22T05:48:38.159Z,100617.16
2023-02-22T05:49:40.772Z,100615.03
2023-02-22T05:50:44.136Z,100618.47
2023-02-22T05:51:46.705Z,100624.22
2023-02-22T05:52:49.259Z,100621.31
2023-02-22T05:53:53.967Z,100620.44
2023-02-22T05:54:58.830Z,100622.78
2023-02-22T05:56:01.821Z,100629.47
2023-02-22T05:57:05.604Z,100629.38
2023-02-22T05:58:08.162Z,100640.56
2023-02-22T05:59:10.561Z,100644.38
2023-02-22T06:00:28.739Z,100643.22
2023-02-22T06:01:31.047Z,100640.88
2023-02-22T06:02:34.178Z,100642.69
2023-02-22T06:03:36.509Z,100647.88
2023-02-22T06:04:39.038Z,100645.34
2023-02-22T06:05:41.688Z,100654.34
2023-02-22T06:06:44.463Z,100659.25
2023-02-22T06:07:46.813Z,100653.25
2023-02-22T06:08:50.320Z,100652.41
2023-02-22T06:09:54.690Z,100656.59
2023-02-22T06:10:57.941Z,100661.53
2023-02-22T06:12:00.279Z,100652.66
2023-02-22T06:13:04.736Z,100663.03
2023-02-22T06:14:08.395Z,100668.25
2023-02-22T06:15:11.058Z,100664.84
2023-02-22T06:16:13.754Z,100656.75
2023-02-22T06:17:17.508Z,100659.09
2023-02-22T06:18:26.834Z,100664.66
2023-02-22T06:19:29.187Z,100668.63
2023-02-22T06:20:31.818Z,100667.00
2023-02-22T06:21:34.245Z,100665.72
2023-02-22T06:22:36.718Z,100666.13
2023-02-22T06:23:39.188Z,100661.91
2023-02-22T06:24:41.580Z,100665.59
2023-02-22T06:25:43.920Z,100672.38
2023-02-22T06:26:46.778Z,100671.25
2023-02-22T06:27:49.392Z,100676.25
2023-02-22T06:28:52.098Z,100672.03
2023-02-22T06:29:54.686Z,100673.06
2023-02-22T06:30:57.160Z,100677.50
2023-02-22T06:31:59.671Z,100662.13
2023-02-22T06:33:02.184Z,100670.72
2023-02-22T06:34:04.992Z,100669.44
2023-02-22T06:35:08.272Z,100673.06
2023-02-22T06:36:11.680Z,100671.63
2023-02-22T06:37:14.839Z,100674.97
2023-02-22T06:38:25.701Z,100679.34
2023-02-22T06:39:28.415Z,100681.47
2023-02-22T06:40:31.533Z,100690.78
2023-02-22T06:41:37.796Z,100690.31
2023-02-22T06:42:40.498Z,100694.72
2023-02-22T06:43:42.863Z,100695.25
2023-02-22T06:44:45.546Z,100697.59
2023-02-22T06:45:48.122Z,100692.09
2023-02-22T06:46:51.471Z,100700.44
2023-02-22T06:47:54.093Z,100696.75
2023-02-22T06:48:59.624Z,100701.66
2023-02-22T06:50:02.104Z,100701.28
2023-02-22T06:51:04.976Z,100707.72
2023-02-22T06:52:09.044Z,100701.31
2023-02-22T06:53:11.431Z,100710.16
2023-02-22T06:54:14.153Z,100708.81
2023-02-22T06:55:19.072Z,100712.72
2023-02-22T06:56:22.008Z,100711.22
2023-02-22T06:57:25.329Z,100705.38
2023-02-22T06:58:28.233Z,100711.38
2023-02-22T06:59:33.732Z,100708.75
2023-02-22T07:00:37.253Z,100709.63
2023-02-22T07:01:43.568Z,100709.44
2023-02-22T07:02:48.659Z,100708.59
2023-02-22T07:03:51.787Z,100712.78
2023-02-22T07:04:54.778Z,100712.97
2023-02-22T07:05:57.061Z,100709.97
2023-02-22T07:06:59.822Z,100709.63
2023-02-22T07:08:05.519Z,100709.91
2023-02-22T07:09:08.952Z,100710.63
2023-02-22T07:10:22.201Z,100709.25
2023-02-22T07:11:24.736Z,100710.44
2023-02-22T07:12:27.057Z,100707.41
2023-02-22T07:13:29.938Z,100707.63
2023-02-22T07:14:32.419Z,100714.13
2023-02-22T07:15:35.814Z,100718.13
2023-02-22T07:16:38.230Z,100725.63
2023-02-22T07:17:41.481Z,100726.41
2023-02-22T07:18:43.980Z,100727.78
2023-02-22T07:19:48.598Z,100725.81
2023-02-22T07:20:51.111Z,100734.06
2023-02-22T07:21:59.477Z,100733.19
2023-02-22T07:23:02.290Z,100730.69
2023-02-22T07:24:05.533Z,100740.88
2023-02-22T07:25:12.738Z,100741.34
2023-02-22T07:26:15.475Z,100740.88
2023-02-22T07:27:17.957Z,100748.44
2023-02-22T07:28:20.664Z,100748.63
2023-02-22T07:29:23.085Z,100749.13
2023-02-22T07:30:30.960Z,100749.13
2023-02-22T07:31:37.554Z,100754.28
2023-02-22T07:32:40.044Z,100750.56
2023-02-22T07:33:51.614Z,100752.22
2023-02-22T07:34:53.987Z,100747.75
2023-02-22T07:35:56.428Z,100751.34
2023-02-22T07:36:58.840Z,100749.38
2023-02-22T07:38:01.510Z,100745.19
2023-02-22T07:39:04.974Z,100756.06
2023-02-22T07:40:09.588Z,100753.44
2023-02-22T07:41:13.821Z,100756.88
2023-02-22T07:42:16.462Z,100757.94
2023-02-22T07:43:24.383Z,100756.56
2023-02-22T07:44:28.349Z,100756.38
2023-02-22T07:45:34.907Z,100748.28
2023-02-22T07:46:38.051Z,100748.66
2023-02-22T07:47:40.503Z,100760.41
2023-02-22T07:48:44.099Z,100758.13
2023-02-22T07:49:46.718Z,100758.97
2023-02-22T07:50:50.421Z,100760.09
2023-02-22T07:51:52.896Z,100758.81
2023-02-22T07:52:57.537Z,100759.47
2023-02-22T07:53:59.878Z,100756.28
2023-02-22T07:55:02.435Z,100758.78
2023-02-22T07:56:06.150Z,100758.19
2023-02-22T07:57:08.696Z,100767.19
2023-02-22T07:58:15.250Z,100761.84
2023-02-22T07:59:17.788Z,100768.28
2023-02-22T08:00:37.925Z,100769.44
2023-02-22T08:01:40.456Z,100770.50
2023-02-22T08:02:43.676Z,100763.66
2023-02-22T08:03:47.760Z,100768.75
2023-02-22T08:04:50.291Z,100767.88
2023-02-22T08:05:55.485Z,100764.38
2023-02-22T08:06:57.830Z,100775.69
2023-02-22T08:08:00.901Z,100769.75
2023-02-22T08:09:03.335Z,100773.88
2023-02-22T08:10:07.943Z,100767.56
2023-02-22T08:11:10.413Z,100766.81
2023-02-22T08:12:12.842Z,100766.47
2023-02-22T08:13:15.710Z,100765.72
2023-02-22T08:14:18.264Z,100768.50
2023-02-22T08:15:25.100Z,100767.19
2023-02-22T08:16:28.154Z,100766.38
2023-02-22T08:17:30.717Z,100764.00
2023-02-22T08:18:33.545Z,100770.78
2023-02-22T08:19:35.938Z,100771.06
2023-02-22T08:20:39.702Z,100776.63
2023-02-22T08:21:42.739Z,100773.31
2023-02-22T08:22:45.766Z,100767.91
2023-02-22T08:23:54.561Z,100769.38
2023-02-22T08:24:56.965Z,100770.22
2023-02-22T08:26:06.460Z,100772.56
2023-02-22T08:27:09.211Z,100765.78
2023-02-22T08:28:15.401Z,100774.59
2023-02-22T08:29:17.770Z,100768.28
2023-02-22T08:30:23.560Z,100770.53
2023-02-22T08:31:26.034Z,100766.53
2023-02-22T08:32:28.437Z,100771.50
2023-02-22T08:33:30.901Z,100772.75
2023-02-22T08:34:33.706Z,100774.63
2023-02-22T08:35:42.202Z,100775.38
2023-02-22T08:36:44.842Z,100770.41
2023-02-22T08:37:51.384Z,100771.38
2023-02-22T08:38:53.816Z,100775.66
2023-02-22T08:39:56.339Z,100773.47
2023-02-22T08:40:58.850Z,100775.22
2023-02-22T08:42:01.171Z,100770.63
2023-02-22T08:43:04.881Z,100780.50
2023-02-22T08:44:07.452Z,100778.94
2023-02-22T08:45:12.249Z,100777.41
2023-02-22T08:46:24.724Z,100777.69
2023-02-22T08:47:27.504Z,100783.69
2023-02-22T08:48:30.188Z,100779.69
2023-02-22T08:49:33.457Z,100780.03
2023-02-22T08:50:35.956Z,100775.69
2023-02-22T08:51:38.280Z,100782.38
2023-02-22T08:52:40.679Z,100781.28
2023-02-22T08:53:43.068Z,100788.28
2023-02-22T08:54:46.490Z,100779.16
2023-02-22T08:55:49.966Z,100784.16
2023-02-22T08:56:52.392Z,100784.44
2023-02-22T08:57:54.758Z,100786.34
2023-02-22T08:59:00.426Z,100779.84
2023-02-22T09:00:05.767Z,100780.13
2023-02-22T09:01:08.204Z,100779.84
2023-02-22T09:02:20.523Z,100781.22
2023-02-22T09:03:23.068Z,100787.94
2023-02-22T09:04:25.457Z,100781.59
2023-02-22T09:05:31.600Z,100784.50
2023-02-22T09:06:34.259Z,100783.47
2023-02-22T09:07:36.694Z,100782.66
2023-02-22T09:08:39.764Z,100788.25
2023-02-22T09:09:45.744Z,100787.63
2023-02-22T09:10:50.297Z,100781.44
2023-02-22T09:11:53.261Z,100786.41
2023-02-22T09:12:56.690Z,100795.06
2023-02-22T09:13:59.092Z,100791.66
2023-02-22T09:15:01.591Z,100789.19
2023-02-22T09:16:04.280Z,100791.81
2023-02-22T09:17:06.737Z,100787.00
2023-02-22T09:18:12.569Z,100790.13
2023-02-22T09:19:14.937Z,100793.38
2023-02-22T09:20:19.264Z,100781.91
2023-02-22T09:21:21.970Z,100789.22
2023-02-22T09:22:24.269Z,100790.56
2023-02-22T09:23:27.574Z,100786.84
2023-02-22T09:24:30.638Z,100788.41
2023-02-22T09:25:34.410Z,100784.22
2023-02-22T09:26:39.708Z,100792.56
2023-02-22T09:27:43.815Z,100793.19
2023-02-22T09:28:46.284Z,100791.19
2023-02-22T09:29:49.465Z,100794.63
2023-02-22T09:30:52.228Z,100786.88
2023-02-22T09:31:56.174Z,100789.97
2023-02-22T09:33:04.799Z,100795.56
2023-02-22T09:34:14.438Z,100798.97
2023-02-22T09:35:17.409Z,100786.53
2023-02-22T09:36:21.887Z,100786.88
2023-02-22T09:37:24.745Z,100796.91
2023-02-22T09:38:30.116Z,100795.06
2023-02-22T09:39:37.938Z,100799.84
2023-02-22T09:40:45.984Z,100798.47
2023-02-22T09:41:56.981Z,100803.41
2023-02-22T09:43:16.530Z,100799.56
2023-02-22T09:44:28.295Z,100798.91
2023-02-22T09:46:13.665Z,100797.38
2023-02-22T09:47:20.196Z,100798.16
2023-02-22T09:48:23.406Z,100797.81
2023-02-22T09:49:38.298Z,100795.34
2023-02-22T09:50:43.312Z,100787.41
2023-02-22T09:51:56.024Z,100794.06
2023-02-22T09:53:29.999Z,100794.59
2023-02-22T09:54:45.339Z,100789.09
2023-02-22T09:55:52.716Z,100793.06
2023-02-22T09:56:58.713Z,100790.59
2023-02-22T09:58:06.214Z,100797.81
2023-02-22T09:59:13.708Z,100785.47
2023-02-22T10:00:20.484Z,100790.16
2023-02-22T10:01:30.297Z,100792.38
2023-02-22T10:02:40.329Z,100784.03
2023-02-22T10:04:04.676Z,100792.13
2023-02-22T10:05:33.976Z,100785.06
2023-02-22T10:06:38.479Z,100785.63
2023-02-22T10:07:51.623Z,100788.19
2023-02-22T10:09:00.171Z,100782.75
2023-02-22T10:10:06.780Z,100785.47
2023-02-22T10:11:31.606Z,100779.28
2023-02-22T10:12:49.467Z,100789.34
2023-02-22T10:14:06.673Z,100780.56
2023-02-22T10:15:42.807Z,100778.22
2023-02-22T10:17:20.716Z,100782.91
2023-02-22T10:18:44.225Z,100775.72
2023-02-22T10:20:14.818Z,100772.84
2023-02-22T10:21:51.717Z,100771.59
2023-02-22T10:23:27.108Z,100779.25
2023-02-22T10:24:56.965Z,100771.75
2023-02-22T10:26:14.449Z,100771.28
2023-02-22T10:27:39.769Z,100765.41
2023-02-22T10:28:55.388Z,100768.44
2023-02-22T10:30:22.168Z,100770.19
2023-02-22T10:31:36.471Z,100765.31
2023-02-22T10:32:45.657Z,100769.75
2023-02-22T10:33:57.095Z,100775.81
2023-02-22T10:35:05.622Z,100771.31
2023-02-22T10:36:19.268Z,100770.84
2023-02-22T10:37:34.253Z,100772.63
2023-02-22T10:38:39.238Z,100775.38
2023-02-22T10:39:42.977Z,100764.25
2023-02-22T10:40:50.895Z,100768.44
2023-02-22T10:41:57.198Z,100765.31
2023-02-22T10:43:05.869Z,100768.31
2023-02-22T10:44:08.306Z,100773.47
2023-02-22T10:45:24.905Z,100769.56
2023-02-22T10:46:28.457Z,100771.16
2023-02-22T10:47:31.379Z,100770.19
2023-02-22T10:48:38.291Z,100769.28
2023-02-22T10:49:51.265Z,100761.50
2023-02-22T10:51:00.376Z,100761.97
2023-02-22T10:52:05.301Z,100755.72
2023-02-22T10:53:09.716Z,100764.03
2023-02-22T10:54:14.895Z,100763.84
2023-02-22T10:55:17.504Z,100756.44
2023-02-22T10:56:23.683Z,100761.72
2023-02-22T10:57:35.748Z,100752.88
2023-02-22T10:58:50.406Z,100764.44
2023-02-22T10:59:52.795Z,100755.94
2023-02-22T11:00:55.215Z,100763.13
2023-02-22T11:01:57.977Z,100758.56
2023-02-22T11:03:02.605Z,100758.38
2023-02-22T11:04:15.281Z,100756.69
2023-02-22T11:05:39.309Z,100752.66
2023-02-22T11:07:04.527Z,100752.69
2023-02-22T11:08:22.052Z,100754.03
2023-02-22T11:09:24.947Z,100756.09
2023-02-22T11:10:31.705Z,100753.59
2023-02-22T11:11:34.319Z,100753.09
2023-02-22T11:12:42.559Z,100758.50
2023-02-22T11:13:44.842Z,100757.06
2023-02-22T11:14:48.466Z,100757.84
2023-02-22T11:15:50.760Z,100757.84
2023-02-22T11:16:57.028Z,100755.41
2023-02-22T11:18:02.096Z,100749.03
2023-02-22T11:19:07.384Z,100748.38
2023-02-22T11:20:26.600Z,100750.91
2023-02-22T11:21:32.425Z,100755.63
2023-02-22T11:22:41.974Z,100747.47
2023-02-22T11:23:45.059Z,100748.16
2023-02-22T11:24:51.032Z,100740.00
2023-02-22T11:26:02.665Z,100742.63
2023-02-22T11:27:09.057Z,100739.56
2023-02-22T11:28:31.322Z,100748.03
2023-02-22T11:29:36.989Z,100743.97
2023-02-22T11:30:40.240Z,100744.50
2023-02-22T11:31:45.920Z,100744.63
2023-02-22T11:32:53.837Z,100745.06
2023-02-22T11:33:59.490Z,100744.63
2023-02-22T11:35:28.850Z,100744.84
2023-02-22T11:36:41.119Z,100741.47
2023-02-22T11:37:43.364Z,100741.22
2023-02-22T11:38:58.714Z,100735.03
2023-02-22T11:40:18.079Z,100742.03
2023-02-22T11:41:27.705Z,100741.81
2023-02-22T11:42:30.286Z,100739.78
2023-02-22T11:43:32.708Z,100736.28
2023-02-22T11:44:35.357Z,100741.34
2023-02-22T11:45:44.185Z,100740.53
2023-02-22T11:46:50.425Z,100737.66
2023-02-22T11:47:55.681Z,100735.38
2023-02-22T11:49:05.873Z,100738.19
2023-02-22T11:50:18.215Z,100730.00
2023-02-22T11:51:39.793Z,100735.72
2023-02-22T11:52:48.315Z,100738.41
2023-02-22T11:53:56.417Z,100731.66
2023-02-22T11:55:02.046Z,100732.53
2023-02-22T11:56:36.773Z,100735.38
2023-02-22T11:58:19.382Z,100733.50
2023-02-22T11:59:38.898Z,100740.78
2023-02-22T12:00:58.849Z,100743.34
2023-02-22T12:02:41.569Z,100734.84
2023-02-22T12:04:06.067Z,100727.50
2023-02-22T12:05:46.807Z,100729.31
2023-02-22T12:07:27.327Z,100735.84
2023-02-22T12:09:00.713Z,100729.81
2023-02-22T12:10:16.380Z,100725.78
2023-02-22T12:11:20.045Z,100729.78
2023-02-22T12:12:34.592Z,100736.84
2023-02-22T12:13:57.316Z,100731.38
2023-02-22T12:15:15.850Z,100727.50
2023-02-22T12:16:32.979Z,100725.06
2023-02-22T12:18:01.055Z,100727.78
2023-02-22T12:19:22.326Z,100720.66
2023-02-22T12:20:47.795Z,100726.09
2023-02-22T12:21:57.256Z,100726.16
2023-02-22T12:23:22.155Z,100727.16
2023-02-22T12:24:30.814Z,100721.09
2023-02-22T12:25:39.000Z,100718.94
2023-02-22T12:26:44.823Z,100716.28
2023-02-22T12:27:55.861Z,100709.44
2023-02-22T12:29:09.928Z,100715.19
2023-02-22T12:30:29.319Z,100714.97
2023-02-22T12:31:46.561Z,100710.53
2023-02-22T12:32:59.844Z,100709.50
2023-02-22T12:34:13.853Z,100707.13
2023-02-22T12:35:30.561Z,100707.78
2023-02-22T12:37:01.714Z,100708.66
2023-02-22T12:38:10.031Z,100712.19
2023-02-22T12:39:56.749Z,100712.28
2023-02-22T12:41:22.574Z,100709.06
2023-02-22T12:42:44.789Z,100704.69
2023-02-22T12:43:57.781Z,100699.81
2023-02-22T12:45:11.686Z,100702.22
2023-02-22T12:46:19.727Z,100710.16
2023-02-22T12:47:29.323Z,100699.63
2023-02-22T12:49:09.899Z,100707.72
2023-02-22T12:50:27.389Z,100708.06